Time;durP1;ratioP1;P1;durP2;ratioP2;P2;SDS_P1;SDS_P2;PMS_P1;PMS_P2;Temp;Humidity;BMP_temperature;BMP_pressure;BME280_temperature;BME280_humidity;BME280_pressure;Samples;Min_cycle;Max_cycle;Signal;HPM_P1;HPM_P2
2023/01/07 00:01:08;;;;;;;0.00;0.00;;;;;;;;;;5113682;28;20035;-82
2023/01/07 00:03:34;;;;;;;0.00;0.00;;;;;;;;;;5097244;28;20054;-83
2023/01/07 00:06:05;;;;;;;0.00;0.00;;;;;;;;;;5113713;28;20444;-82
2023/01/07 00:08:32;;;;;;;0.00;0.00;;;;;;;;;;5113843;28;20274;-82
2023/01/07 00:11:02;;;;;;;0.00;0.00;;;;;;;;;;5113560;28;20165;-82
2023/01/07 00:13:28;;;;;;;0.00;0.00;;;;;;;;;;5113634;28;20040;-82
2023/01/07 00:15:58;;;;;;;0.00;0.00;;;;;;;;;;5113563;28;20035;-82
2023/01/07 00:18:24;;;;;;;0.00;0.00;;;;;;;;;;5113579;28;20043;-82
2023/01/07 00:20:50;;;;;;;0.00;0.00;;;;;;;;;;5096274;28;20040;-82
2023/01/07 00:23:16;;;;;;;0.00;0.00;;;;;;;;;;5113634;28;20134;-82
2023/01/07 00:25:42;;;;;;;0.00;0.00;;;;;;;;;;5113647;28;20152;-82
2023/01/07 00:28:08;;;;;;;0.00;0.00;;;;;;;;;;5114620;28;20048;-82
2023/01/07 00:30:34;;;;;;;0.00;0.00;;;;;;;;;;5113704;28;20114;-82
2023/01/07 00:35:28;;;;;;;0.00;0.00;;;;;;;;;;5113250;28;20050;-82
2023/01/07 00:37:55;;;;;;;0.00;0.00;;;;;;;;;;5113036;28;20399;-82
2023/01/07 00:40:21;;;;;;;0.00;0.00;;;;;;;;;;5113167;28;20118;-82
2023/01/07 00:42:53;;;;;;;0.00;0.00;;;;;;;;;;5112983;28;20188;-82
2023/01/07 00:45:19;;;;;;;0.00;0.00;;;;;;;;;;5114327;28;20046;-82
2023/01/07 00:47:45;;;;;;;0.00;0.00;;;;;;;;;;5114154;28;20123;-82
2023/01/07 00:50:11;;;;;;;0.00;0.00;;;;;;;;;;5113032;28;20514;-82
2023/01/07 00:52:37;;;;;;;0.00;0.00;;;;;;;;;;5113079;28;20043;-82
2023/01/07 00:55:03;;;;;;;0.00;0.00;;;;;;;;;;5114334;28;20039;-82
2023/01/07 00:57:29;;;;;;;0.00;0.00;;;;;;;;;;5112840;28;20047;-82
2023/01/07 00:59:55;;;;;;;0.00;0.00;;;;;;;;;;5113140;28;20054;-82
2023/01/07 01:02:21;;;;;;;0.00;0.00;;;;;;;;;;5112495;28;20120;-82
2023/01/07 01:04:47;;;;;;;0.00;0.00;;;;;;;;;;5112821;28;20243;-82
2023/01/07 01:07:13;;;;;;;0.00;0.00;;;;;;;;;;5112617;28;20043;-82
2023/01/07 01:09:39;;;;;;;0.00;0.00;;;;;;;;;;5095790;28;20043;-82
2023/01/07 01:12:05;;;;;;;0.00;0.00;;;;;;;;;;5112427;28;20039;-82
2023/01/07 01:14:31;;;;;;;0.00;0.00;;;;;;;;;;5112623;28;20093;-82
2023/01/07 01:16:57;;;;;;;0.00;0.00;;;;;;;;;;5095197;28;20059;-81
2023/01/07 01:19:23;;;;;;;0.00;0.00;;;;;;;;;;5112755;28;20046;-81
2023/01/07 01:21:49;;;;;;;0.10;0.00;;;;;;;;;;5112725;28;20043;-81
2023/01/07 01:24:15;;;;;;;0.00;0.00;;;;;;;;;;5112505;28;20042;-81
2023/01/07 01:26:41;;;;;;;0.00;0.00;;;;;;;;;;5112577;28;20138;-81
2023/01/07 01:29:07;;;;;;;0.00;0.00;;;;;;;;;;5112599;28;20040;-81
2023/01/07 01:31:33;;;;;;;0.00;0.00;;;;;;;;;;5112415;28;20036;-82
2023/01/07 01:33:59;;;;;;;0.00;0.00;;;;;;;;;;5112368;28;20062;-81
2023/01/07 01:36:25;;;;;;;0.00;0.00;;;;;;;;;;5112562;28;20062;-81
2023/01/07 01:38:51;;;;;;;0.00;0.00;;;;;;;;;;5112140;28;20040;-81
2023/01/07 01:41:17;;;;;;;0.00;0.00;;;;;;;;;;5111981;28;20101;-81
2023/01/07 01:43:43;;;;;;;0.00;0.00;;;;;;;;;;5111861;28;20082;-82
2023/01/07 01:46:15;;;;;;;0.00;0.00;;;;;;;;;;5112018;28;20048;-81
2023/01/07 01:48:45;;;;;;;0.00;0.00;;;;;;;;;;5112120;28;20096;-81
2023/01/07 01:51:12;;;;;;;0.00;0.00;;;;;;;;;;5112214;28;20467;-81
2023/01/07 01:53:38;;;;;;;0.00;0.00;;;;;;;;;;5111692;28;20101;-81
2023/01/07 01:56:15;;;;;;;0.00;0.00;;;;;;;;;;5095022;28;20083;-81
2023/01/07 01:58:45;;;;;;;0.00;0.00;;;;;;;;;;5112989;28;20048;-81
2023/01/07 02:01:11;;;;;;;0.00;0.00;;;;;;;;;;5112301;28;20036;-81
2023/01/07 02:03:38;;;;;;;0.00;0.00;;;;;;;;;;5113141;28;20148;-81
2023/01/07 02:06:04;;;;;;;0.00;0.00;;;;;;;;;;5111762;28;20487;-81
2023/01/07 02:08:31;;;;;;;0.00;0.00;;;;;;;;;;5094432;28;20051;-81
2023/01/07 02:11:07;;;;;;;0.00;0.00;;;;;;;;;;5094564;28;20050;-81
2023/01/07 02:13:42;;;;;;;0.03;0.00;;;;;;;;;;5111408;28;20124;-81
2023/01/07 02:16:11;;;;;;;0.00;0.00;;;;;;;;;;5111788;28;20054;-81
2023/01/07 02:18:56;;;;;;;0.00;0.00;;;;;;;;;;5111299;28;20519;-81
2023/01/07 02:21:26;;;;;;;0.15;0.00;;;;;;;;;;5111783;28;20070;-81
2023/01/07 02:24:26;;;;;;;0.38;0.38;;;;;;;;;;5111311;28;20036;-81
2023/01/07 02:27:15;;;;;;;0.00;0.00;;;;;;;;;;5111679;28;20063;-81
2023/01/07 02:29:50;;;;;;;0.00;0.00;;;;;;;;;;5111490;28;20039;-81
2023/01/07 02:32:43;;;;;;;0.00;0.00;;;;;;;;;;5111518;28;20082;-81
2023/01/07 02:35:27;;;;;;;0.00;0.00;;;;;;;;;;5088263;28;20052;-81
2023/01/07 02:38:14;;;;;;;0.00;0.00;;;;;;;;;;5111357;28;20047;-81
2023/01/07 02:40:58;;;;;;;0.00;0.00;;;;;;;;;;5100660;28;20127;-81
2023/01/07 02:43:40;;;;;;;0.00;0.00;;;;;;;;;;5111352;28;20043;-81
2023/01/07 02:46:27;;;;;;;0.10;0.00;;;;;;;;;;5094456;28;20505;-81
2023/01/07 02:48:53;;;;;;;0.00;0.00;;;;;;;;;;5111369;28;20097;-81
2023/01/07 02:51:19;;;;;;;0.00;0.00;;;;;;;;;;5111177;28;20047;-81
2023/01/07 02:53:46;;;;;;;0.00;0.00;;;;;;;;;;5112584;28;20543;-81
2023/01/07 02:56:26;;;;;;;0.00;0.00;;;;;;;;;;5115738;28;20102;-81
2023/01/07 02:59:01;;;;;;;0.00;0.00;;;;;;;;;;5114869;28;20050;-81
2023/01/07 03:01:39;;;;;;;0.00;0.00;;;;;;;;;;5115079;28;20464;-81
2023/01/07 03:04:05;;;;;;;0.10;0.05;;;;;;;;;;5116066;28;20090;-81
2023/01/07 03:06:53;;;;;;;0.00;0.00;;;;;;;;;;5115059;28;20490;-81
2023/01/07 03:09:26;;;;;;;0.10;0.00;;;;;;;;;;5114687;28;20046;-81
2023/01/07 03:12:05;;;;;;;0.00;0.00;;;;;;;;;;5114996;28;20036;-81
2023/01/07 03:14:49;;;;;;;0.00;0.00;;;;;;;;;;5114572;28;20040;-81
2023/01/07 03:17:18;;;;;;;0.45;0.05;;;;;;;;;;5114850;28;20053;-81
2023/01/07 03:19:45;;;;;;;0.20;0.03;;;;;;;;;;5114665;28;20040;-81
2023/01/07 03:22:13;;;;;;;0.10;0.00;;;;;;;;;;5116173;28;20111;-81
2023/01/07 03:24:39;;;;;;;1.23;0.35;;;;;;;;;;5115595;28;20083;-81
2023/01/07 03:27:08;;;;;;;0.20;0.10;;;;;;;;;;5116137;28;20135;-81
2023/01/07 03:29:37;;;;;;;0.00;0.00;;;;;;;;;;5115858;28;20395;-81
2023/01/07 03:32:15;;;;;;;0.00;0.00;;;;;;;;;;5115826;28;20043;-81
2023/01/07 03:34:42;;;;;;;0.00;0.00;;;;;;;;;;5115402;28;20047;-81
2023/01/07 03:37:19;;;;;;;0.00;0.00;;;;;;;;;;5114350;28;20059;-81
2023/01/07 03:39:46;;;;;;;0.10;0.00;;;;;;;;;;5114626;28;20039;-81
2023/01/07 03:44:58;;;;;;;0.00;0.00;;;;;;;;;;5113949;28;20455;-81
2023/01/07 03:47:24;;;;;;;0.00;0.00;;;;;;;;;;5097215;28;20103;-81
2023/01/07 03:49:50;;;;;;;0.00;0.00;;;;;;;;;;5114001;28;20122;-82
2023/01/07 03:52:16;;;;;;;0.38;0.10;;;;;;;;;;5114081;28;20529;-81
2023/01/07 03:54:42;;;;;;;0.00;0.00;;;;;;;;;;5114241;28;20052;-81
2023/01/07 03:57:08;;;;;;;0.00;0.00;;;;;;;;;;5114231;28;20079;-81
2023/01/07 03:59:34;;;;;;;0.00;0.00;;;;;;;;;;5113765;28;20055;-81
2023/01/07 04:02:00;;;;;;;0.00;0.00;;;;;;;;;;5115284;28;20043;-81
2023/01/07 04:04:26;;;;;;;0.00;0.00;;;;;;;;;;5113599;28;20045;-81
2023/01/07 04:06:52;;;;;;;0.00;0.00;;;;;;;;;;5115319;28;20115;-81
2023/01/07 04:09:18;;;;;;;0.00;0.00;;;;;;;;;;5114838;28;20075;-81
2023/01/07 04:11:44;;;;;;;0.00;0.00;;;;;;;;;;5113827;28;20479;-81
2023/01/07 04:14:10;;;;;;;0.00;0.00;;;;;;;;;;5096650;28;20337;-81
2023/01/07 04:16:36;;;;;;;0.20;0.13;;;;;;;;;;5096522;28;20054;-81
2023/01/07 04:19:03;;;;;;;0.00;0.00;;;;;;;;;;5113372;28;20040;-81
2023/01/07 04:21:29;;;;;;;0.03;0.00;;;;;;;;;;5114951;28;20039;-81
2023/01/07 04:23:55;;;;;;;0.00;0.00;;;;;;;;;;5113422;28;20135;-81
2023/01/07 04:26:21;;;;;;;0.00;0.00;;;;;;;;;;5113398;28;20040;-81
2023/01/07 04:28:47;;;;;;;0.13;0.10;;;;;;;;;;5113441;28;20088;-81
2023/01/07 04:31:13;;;;;;;0.00;0.00;;;;;;;;;;5113258;28;20051;-81
2023/01/07 04:33:39;;;;;;;0.38;0.10;;;;;;;;;;5114425;28;20116;-81
2023/01/07 04:36:05;;;;;;;0.00;0.00;;;;;;;;;;5113374;28;20050;-81
2023/01/07 04:38:31;;;;;;;0.00;0.00;;;;;;;;;;5113085;28;20071;-81
2023/01/07 04:40:57;;;;;;;0.20;0.15;;;;;;;;;;5113147;28;20039;-82
2023/01/07 04:43:23;;;;;;;0.00;0.00;;;;;;;;;;5112898;28;20036;-81
2023/01/07 04:45:49;;;;;;;0.00;0.00;;;;;;;;;;5112981;28;20395;-81
2023/01/07 04:48:15;;;;;;;0.00;0.00;;;;;;;;;;5113152;28;20043;-81
2023/01/07 04:50:41;;;;;;;0.00;0.00;;;;;;;;;;5113066;28;20046;-82
2023/01/07 04:53:08;;;;;;;0.00;0.00;;;;;;;;;;5114259;28;20115;-81
2023/01/07 04:55:34;;;;;;;0.00;0.00;;;;;;;;;;5112576;28;20120;-81
2023/01/07 04:58:00;;;;;;;0.00;0.00;;;;;;;;;;5112809;28;20457;-81
2023/01/07 05:00:25;;;;;;;0.00;0.00;;;;;;;;;;5102673;28;20040;-81
2023/01/07 05:02:51;;;;;;;0.13;0.13;;;;;;;;;;5093744;28;20377;-82
2023/01/07 05:05:17;;;;;;;0.00;0.00;;;;;;;;;;5092138;28;20074;-81
2023/01/07 05:07:43;;;;;;;0.00;0.00;;;;;;;;;;5092451;28;20044;-82
2023/01/07 05:10:09;;;;;;;0.00;0.00;;;;;;;;;;5092341;28;20417;-82
2023/01/07 05:12:36;;;;;;;0.00;0.00;;;;;;;;;;5092268;28;20051;-82
2023/01/07 05:15:06;;;;;;;0.00;0.00;;;;;;;;;;5091832;28;20065;-82
2023/01/07 05:17:32;;;;;;;0.00;0.00;;;;;;;;;;5091802;28;20540;-82
2023/01/07 05:19:58;;;;;;;0.00;0.00;;;;;;;;;;5091816;28;20456;-82
2023/01/07 05:22:24;;;;;;;0.00;0.00;;;;;;;;;;5092049;28;20036;-81
2023/01/07 05:24:50;;;;;;;0.00;0.00;;;;;;;;;;5091704;28;20478;-81
2023/01/07 05:27:16;;;;;;;0.00;0.00;;;;;;;;;;5092014;28;20123;-81
2023/01/07 05:29:42;;;;;;;0.00;0.00;;;;;;;;;;5074838;28;20076;-82
2023/01/07 05:32:08;;;;;;;0.00;0.00;;;;;;;;;;5091905;28;20072;-81
2023/01/07 05:34:34;;;;;;;0.00;0.00;;;;;;;;;;5092823;28;20054;-81
2023/01/07 05:37:00;;;;;;;0.00;0.00;;;;;;;;;;5093050;28;20132;-82
2023/01/07 05:39:26;;;;;;;0.00;0.00;;;;;;;;;;5074556;28;20040;-81
2023/01/07 05:41:52;;;;;;;0.30;0.08;;;;;;;;;;5091922;28;20051;-82
2023/01/07 05:44:18;;;;;;;0.00;0.00;;;;;;;;;;5091483;28;20040;-81
2023/01/07 05:46:43;;;;;;;0.00;0.00;;;;;;;;;;5091902;28;20044;-81
2023/01/07 05:49:09;;;;;;;0.20;0.00;;;;;;;;;;5091687;28;20040;-81
2023/01/07 05:51:36;;;;;;;0.00;0.00;;;;;;;;;;5091667;28;20494;-81
2023/01/07 05:54:02;;;;;;;0.00;0.00;;;;;;;;;;5091359;28;20039;-81
2023/01/07 05:56:28;;;;;;;0.00;0.00;;;;;;;;;;5092993;28;20040;-81
2023/01/07 05:58:54;;;;;;;0.00;0.00;;;;;;;;;;5091360;28;20057;-81
2023/01/07 06:01:19;;;;;;;0.00;0.00;;;;;;;;;;5091139;28;20078;-82
2023/01/07 06:03:45;;;;;;;0.00;0.00;;;;;;;;;;5091401;28;20062;-81
2023/01/07 06:06:11;;;;;;;0.00;0.00;;;;;;;;;;5091402;28;20043;-81
2023/01/07 06:08:38;;;;;;;0.20;0.03;;;;;;;;;;5092585;28;20043;-81
2023/01/07 06:11:05;;;;;;;0.00;0.00;;;;;;;;;;5091065;28;20043;-81
2023/01/07 06:13:31;;;;;;;0.00;0.00;;;;;;;;;;5091283;28;20093;-81
2023/01/07 06:16:01;;;;;;;0.00;0.00;;;;;;;;;;5091210;28;20048;-81
2023/01/07 06:18:27;;;;;;;0.00;0.00;;;;;;;;;;5091204;28;20047;-81
2023/01/07 06:20:53;;;;;;;0.00;0.00;;;;;;;;;;5091234;28;20127;-82
2023/01/07 06:23:19;;;;;;;0.20;0.20;;;;;;;;;;5091087;28;20040;-81
2023/01/07 06:25:45;;;;;;;0.00;0.00;;;;;;;;;;5090836;28;20070;-81
2023/01/07 06:28:11;;;;;;;0.00;0.00;;;;;;;;;;5091463;28;20052;-81
2023/01/07 06:30:36;;;;;;;0.22;0.10;;;;;;;;;;5096574;28;20044;-81
2023/01/07 06:33:04;;;;;;;0.00;0.00;;;;;;;;;;5095294;28;20056;-81
2023/01/07 06:35:30;;;;;;;0.00;0.00;;;;;;;;;;5095172;28;20036;-81
2023/01/07 06:37:57;;;;;;;0.00;0.00;;;;;;;;;;5078272;28;20044;-81
2023/01/07 06:40:23;;;;;;;0.63;0.10;;;;;;;;;;5095008;28;20032;-81
2023/01/07 06:42:49;;;;;;;0.00;0.00;;;;;;;;;;5095343;28;20093;-81
2023/01/07 06:45:15;;;;;;;0.00;0.00;;;;;;;;;;5094834;28;20036;-82
2023/01/07 06:47:41;;;;;;;0.00;0.00;;;;;;;;;;5095251;28;20055;-81
2023/01/07 06:50:07;;;;;;;0.00;0.00;;;;;;;;;;5095161;28;20075;-81
2023/01/07 06:52:33;;;;;;;0.00;0.00;;;;;;;;;;5096381;28;20115;-81
2023/01/07 06:54:59;;;;;;;0.00;0.00;;;;;;;;;;5096251;28;20128;-81
2023/01/07 06:57:25;;;;;;;0.00;0.00;;;;;;;;;;5095134;28;20048;-81
2023/01/07 06:59:51;;;;;;;0.00;0.00;;;;;;;;;;5094977;28;20058;-81
2023/01/07 07:02:18;;;;;;;0.00;0.00;;;;;;;;;;5094995;28;20040;-83
2023/01/07 07:04:45;;;;;;;0.00;0.00;;;;;;;;;;5096078;28;20115;-81
2023/01/07 07:07:10;;;;;;;0.00;0.00;;;;;;;;;;5116538;28;20518;-81
2023/01/07 07:09:36;;;;;;;0.00;0.00;;;;;;;;;;5115443;28;20047;-82
2023/01/07 07:12:03;;;;;;;0.00;0.00;;;;;;;;;;5114860;28;20123;-82
2023/01/07 07:14:28;;;;;;;0.00;0.00;;;;;;;;;;5115077;28;20043;-81
2023/01/07 07:16:54;;;;;;;0.00;0.00;;;;;;;;;;5115275;28;20047;-81
2023/01/07 07:19:20;;;;;;;0.00;0.00;;;;;;;;;;5116497;28;20059;-81
2023/01/07 07:21:47;;;;;;;0.00;0.00;;;;;;;;;;5115135;28;20386;-81
2023/01/07 07:24:13;;;;;;;0.00;0.00;;;;;;;;;;5115141;28;20044;-82
2023/01/07 07:26:39;;;;;;;0.00;0.00;;;;;;;;;;5114893;28;20046;-86
2023/01/07 07:29:05;;;;;;;0.00;0.00;;;;;;;;;;5097680;28;20038;-81
2023/01/07 07:31:31;;;;;;;0.00;0.00;;;;;;;;;;5114682;28;20474;-82
2023/01/07 07:33:57;;;;;;;0.00;0.00;;;;;;;;;;5115802;28;20139;-82
2023/01/07 07:36:23;;;;;;;0.00;0.00;;;;;;;;;;5115865;28;20115;-81
2023/01/07 07:38:49;;;;;;;0.00;0.00;;;;;;;;;;5114371;28;20050;-81
2023/01/07 07:41:15;;;;;;;0.00;0.00;;;;;;;;;;5114186;28;20043;-80
2023/01/07 07:43:41;;;;;;;0.00;0.00;;;;;;;;;;5114622;28;20039;-81
2023/01/07 07:46:07;;;;;;;0.00;0.00;;;;;;;;;;5115492;28;20564;-81
2023/01/07 07:48:33;;;;;;;0.00;0.00;;;;;;;;;;5114454;28;20134;-81
2023/01/07 07:50:59;;;;;;;0.00;0.00;;;;;;;;;;5114079;28;20043;-81
2023/01/07 07:53:25;;;;;;;0.00;0.00;;;;;;;;;;5114174;28;20039;-81
2023/01/07 07:55:52;;;;;;;0.00;0.00;;;;;;;;;;5114012;28;20039;-80
2023/01/07 07:58:18;;;;;;;0.00;0.00;;;;;;;;;;5114190;28;20048;-81
2023/01/07 08:00:44;;;;;;;0.00;0.00;;;;;;;;;;5114060;28;20482;-80
2023/01/07 08:03:10;;;;;;;0.00;0.00;;;;;;;;;;5114452;28;20390;-81
2023/01/07 08:05:40;;;;;;;0.00;0.00;;;;;;;;;;5113836;28;20557;-81
2023/01/07 08:08:08;;;;;;;0.00;0.00;;;;;;;;;;5114406;28;20035;-81
2023/01/07 08:10:34;;;;;;;0.10;0.10;;;;;;;;;;5113753;28;20047;-81
2023/01/07 08:13:00;;;;;;;0.00;0.00;;;;;;;;;;5115220;28;20063;-80
2023/01/07 08:15:26;;;;;;;0.00;0.00;;;;;;;;;;5113796;28;20075;-80
2023/01/07 08:18:00;;;;;;;0.00;0.00;;;;;;;;;;5113880;28;20040;-80
2023/01/07 08:20:26;;;;;;;0.00;0.00;;;;;;;;;;5113739;28;20071;-81
2023/01/07 08:22:52;;;;;;;0.00;0.00;;;;;;;;;;5113610;28;20040;-81
2023/01/07 08:25:18;;;;;;;0.00;0.00;;;;;;;;;;5113730;28;20086;-83
2023/01/07 08:27:44;;;;;;;0.00;0.00;;;;;;;;;;5113595;28;20103;-81
2023/01/07 08:30:10;;;;;;;0.00;0.00;;;;;;;;;;5113624;28;20043;-81
2023/01/07 08:32:37;;;;;;;0.00;0.00;;;;;;;;;;5113524;28;20048;-81
2023/01/07 08:35:03;;;;;;;0.00;0.00;;;;;;;;;;5113242;28;20135;-81
2023/01/07 08:37:29;;;;;;;0.00;0.00;;;;;;;;;;5113319;28;20109;-81
2023/01/07 08:39:55;;;;;;;0.00;0.00;;;;;;;;;;5113406;28;20044;-81
2023/01/07 08:42:21;;;;;;;0.00;0.00;;;;;;;;;;5113113;28;20096;-80
2023/01/07 08:44:47;;;;;;;0.00;0.00;;;;;;;;;;5113329;28;20043;-81
2023/01/07 08:47:14;;;;;;;0.00;0.00;;;;;;;;;;5109860;28;20039;-81
2023/01/07 08:49:40;;;;;;;0.03;0.00;;;;;;;;;;5113441;28;20046;-83
2023/01/07 08:52:06;;;;;;;0.00;0.00;;;;;;;;;;5108624;28;20085;-81
2023/01/07 08:54:32;;;;;;;0.00;0.00;;;;;;;;;;5092878;28;20048;-81
2023/01/07 08:56:58;;;;;;;0.00;0.00;;;;;;;;;;5108459;28;20040;-81
2023/01/07 08:59:24;;;;;;;0.00;0.00;;;;;;;;;;5112957;28;20138;-81
2023/01/07 09:01:50;;;;;;;0.00;0.00;;;;;;;;;;5112552;28;20135;-81
2023/01/07 09:04:17;;;;;;;0.00;0.00;;;;;;;;;;5112714;28;20059;-81
2023/01/07 09:06:43;;;;;;;0.00;0.00;;;;;;;;;;5095843;28;20044;-82
2023/01/07 09:09:10;;;;;;;0.00;0.00;;;;;;;;;;5113172;28;20062;-80
2023/01/07 09:11:36;;;;;;;0.00;0.00;;;;;;;;;;5112683;28;20035;-81
2023/01/07 09:14:02;;;;;;;0.00;0.00;;;;;;;;;;5095520;28;20054;-81
2023/01/07 09:16:28;;;;;;;0.38;0.00;;;;;;;;;;5112230;28;20416;-82
2023/01/07 09:18:54;;;;;;;0.68;0.10;;;;;;;;;;5095609;28;20101;-83
2023/01/07 09:21:20;;;;;;;0.00;0.00;;;;;;;;;;5112313;28;20558;-81
2023/01/07 09:23:46;;;;;;;0.00;0.00;;;;;;;;;;5112241;27;20039;-82
2023/01/07 09:26:12;;;;;;;0.00;0.00;;;;;;;;;;5091871;28;20107;-80
2023/01/07 09:28:38;;;;;;;0.00;0.00;;;;;;;;;;5092271;28;20383;-81
2023/01/07 09:31:05;;;;;;;0.00;0.00;;;;;;;;;;5092129;28;20039;-81
2023/01/07 09:33:32;;;;;;;0.00;0.00;;;;;;;;;;5091661;28;20057;-80
2023/01/07 09:35:58;;;;;;;0.00;0.00;;;;;;;;;;5092032;28;20394;-81
2023/01/07 09:38:24;;;;;;;0.00;0.00;;;;;;;;;;5092887;28;20123;-80
2023/01/07 09:40:51;;;;;;;0.08;0.08;;;;;;;;;;5098614;28;20050;-80
2023/01/07 09:43:20;;;;;;;0.00;0.00;;;;;;;;;;5111290;28;20109;-80
2023/01/07 09:45:49;;;;;;;0.05;0.05;;;;;;;;;;5110267;27;20047;-80
2023/01/07 09:48:27;;;;;;;0.00;0.00;;;;;;;;;;5107782;28;20048;-81
2023/01/07 09:51:02;;;;;;;0.00;0.00;;;;;;;;;;5095858;28;20451;-80
2023/01/07 09:53:37;;;;;;;0.00;0.00;;;;;;;;;;5108249;28;20123;-80
2023/01/07 09:56:05;;;;;;;0.32;0.15;;;;;;;;;;5091478;28;20495;-80
2023/01/07 09:58:31;;;;;;;0.00;0.00;;;;;;;;;;5091233;28;20048;-80
2023/01/07 10:00:59;;;;;;;0.00;0.00;;;;;;;;;;5100412;28;20032;-80
2023/01/07 10:03:40;;;;;;;0.00;0.00;;;;;;;;;;5113000;28;20082;-80
2023/01/07 10:06:16;;;;;;;0.00;0.00;;;;;;;;;;5112270;28;20044;-80
2023/01/07 10:08:48;;;;;;;0.00;0.00;;;;;;;;;;5111534;28;20183;-80
2023/01/07 10:11:17;;;;;;;0.00;0.00;;;;;;;;;;5113042;28;20474;-81
2023/01/07 10:13:43;;;;;;;0.00;0.00;;;;;;;;;;5112745;28;20490;-80
2023/01/07 10:16:34;;;;;;;0.00;0.00;;;;;;;;;;5112905;28;20047;-80
2023/01/07 10:19:11;;;;;;;0.00;0.00;;;;;;;;;;5111491;28;20144;-81
2023/01/07 10:21:41;;;;;;;0.00;0.00;;;;;;;;;;5111699;28;20047;-80
2023/01/07 10:24:14;;;;;;;0.00;0.00;;;;;;;;;;5111231;28;20096;-80
2023/01/07 10:26:42;;;;;;;0.00;0.00;;;;;;;;;;5112642;28;20065;-80
2023/01/07 10:29:27;;;;;;;0.00;0.00;;;;;;;;;;5094387;28;20051;-81
2023/01/07 10:31:55;;;;;;;0.00;0.00;;;;;;;;;;5111430;28;20043;-80
2023/01/07 10:34:33;;;;;;;0.00;0.00;;;;;;;;;;5110944;28;20047;-82
2023/01/07 10:37:06;;;;;;;0.20;0.00;;;;;;;;;;5112585;28;20051;-80
2023/01/07 10:39:56;;;;;;;0.00;0.00;;;;;;;;;;5112990;28;20039;-81
2023/01/07 10:42:31;;;;;;;0.00;0.00;;;;;;;;;;5103812;28;20047;-80
2023/01/07 10:44:57;;;;;;;0.00;0.00;;;;;;;;;;5111312;28;20505;-80
2023/01/07 10:47:33;;;;;;;0.00;0.00;;;;;;;;;;5111126;28;20047;-80
2023/01/07 10:50:23;;;;;;;0.00;0.00;;;;;;;;;;5112530;28;20126;-80
2023/01/07 10:52:53;;;;;;;0.00;0.00;;;;;;;;;;5083272;28;20517;-80
2023/01/07 10:55:38;;;;;;;0.00;0.00;;;;;;;;;;5094215;28;20043;-80
2023/01/07 10:58:04;;;;;;;0.00;0.00;;;;;;;;;;5110890;28;20035;-79
2023/01/07 11:00:30;;;;;;;0.00;0.00;;;;;;;;;;5112285;28;20547;-80
2023/01/07 11:02:58;;;;;;;0.00;0.00;;;;;;;;;;5110833;28;20044;-80
2023/01/07 11:05:28;;;;;;;0.05;0.00;;;;;;;;;;5111035;28;20142;-80
2023/01/07 11:07:56;;;;;;;0.00;0.00;;;;;;;;;;5111073;28;20203;-80
2023/01/07 11:10:23;;;;;;;0.00;0.00;;;;;;;;;;5104376;28;20051;-80
2023/01/07 11:12:54;;;;;;;0.00;0.00;;;;;;;;;;5093374;28;20043;-82
2023/01/07 11:15:21;;;;;;;0.00;0.00;;;;;;;;;;5113359;28;20093;-80
2023/01/07 11:17:47;;;;;;;0.00;0.00;;;;;;;;;;5114649;28;20040;-80
2023/01/07 11:20:14;;;;;;;0.00;0.00;;;;;;;;;;5114828;28;20054;-80
2023/01/07 11:22:40;;;;;;;0.00;0.00;;;;;;;;;;5114387;28;20118;-80
2023/01/07 11:25:26;;;;;;;0.00;0.00;;;;;;;;;;5114502;28;20039;-80
2023/01/07 11:27:52;;;;;;;0.00;0.00;;;;;;;;;;5114534;28;20043;-80
2023/01/07 11:30:30;;;;;;;0.00;0.00;;;;;;;;;;5114508;28;20092;-80
2023/01/07 11:33:01;;;;;;;0.00;0.00;;;;;;;;;;5115610;28;20106;-80
2023/01/07 11:35:27;;;;;;;0.00;0.00;;;;;;;;;;5114325;28;20058;-80
2023/01/07 11:37:54;;;;;;;0.00;0.00;;;;;;;;;;5115443;28;20054;-80
2023/01/07 11:40:22;;;;;;;0.10;0.08;;;;;;;;;;5111799;28;20039;-80
2023/01/07 11:42:54;;;;;;;0.00;0.00;;;;;;;;;;5110893;28;20422;-80
2023/01/07 11:45:26;;;;;;;0.00;0.00;;;;;;;;;;5105874;28;20102;-80
2023/01/07 11:48:04;;;;;;;0.00;0.00;;;;;;;;;;5114120;28;20036;-80
2023/01/07 11:50:35;;;;;;;0.00;0.00;;;;;;;;;;5114179;28;20044;-80
2023/01/07 11:53:01;;;;;;;0.00;0.00;;;;;;;;;;5115488;27;20039;-80
2023/01/07 11:55:28;;;;;;;0.00;0.00;;;;;;;;;;5093740;28;20139;-80
2023/01/07 11:57:55;;;;;;;0.00;0.00;;;;;;;;;;5093388;28;20490;-80
2023/01/07 12:00:21;;;;;;;0.00;0.00;;;;;;;;;;5093749;28;20129;-80
2023/01/07 12:03:06;;;;;;;0.00;0.00;;;;;;;;;;5076692;28;20114;-80
2023/01/07 12:05:32;;;;;;;0.00;0.00;;;;;;;;;;5093841;28;20036;-80
2023/01/07 12:07:58;;;;;;;0.00;0.00;;;;;;;;;;5094807;28;20047;-80
2023/01/07 12:10:28;;;;;;;0.00;0.00;;;;;;;;;;5097062;28;20432;-80
2023/01/07 12:12:54;;;;;;;0.00;0.00;;;;;;;;;;5114226;28;20050;-80
2023/01/07 12:15:22;;;;;;;0.00;0.00;;;;;;;;;;5096858;28;20063;-80
2023/01/07 12:17:50;;;;;;;0.00;0.00;;;;;;;;;;5113731;28;20050;-80
2023/01/07 12:20:34;;;;;;;0.00;0.00;;;;;;;;;;5113564;28;20035;-80
2023/01/07 12:23:18;;;;;;;0.00;0.00;;;;;;;;;;5114933;28;20477;-80
2023/01/07 12:25:52;;;;;;;0.00;0.00;;;;;;;;;;5112941;28;20473;-79
2023/01/07 12:28:25;;;;;;;0.00;0.00;;;;;;;;;;5114595;28;20067;-80
2023/01/07 12:31:03;;;;;;;0.00;0.00;;;;;;;;;;5114905;28;20073;-79
2023/01/07 12:33:42;;;;;;;0.32;0.10;;;;;;;;;;5113336;28;20059;-80
2023/01/07 12:36:15;;;;;;;1.17;0.77;;;;;;;;;;5114548;28;20475;-80
2023/01/07 12:38:44;;;;;;;0.00;0.00;;;;;;;;;;5113045;28;20055;-80
2023/01/07 12:41:19;;;;;;;0.20;0.00;;;;;;;;;;5114667;28;20035;-80
2023/01/07 12:43:45;;;;;;;0.00;0.00;;;;;;;;;;5096272;28;20039;-80
2023/01/07 12:46:13;;;;;;;0.00;0.00;;;;;;;;;;5114833;28;20144;-80
2023/01/07 12:48:43;;;;;;;0.00;0.00;;;;;;;;;;5118889;27;20078;-79
2023/01/07 12:51:13;;;;;;;0.20;0.20;;;;;;;;;;5134847;27;20466;-79
2023/01/07 12:53:51;;;;;;;0.00;0.00;;;;;;;;;;5133728;27;20078;-79
2023/01/07 12:56:26;;;;;;;0.00;0.00;;;;;;;;;;5133804;27;20047;-80
2023/01/07 12:58:58;;;;;;;0.38;0.10;;;;;;;;;;5133454;27;20093;-79
2023/01/07 13:01:41;;;;;;;0.00;0.00;;;;;;;;;;5135060;27;20039;-80
2023/01/07 13:04:07;;;;;;;0.00;0.00;;;;;;;;;;5133538;27;20053;-80
2023/01/07 13:06:33;;;;;;;0.30;0.10;;;;;;;;;;5133439;27;20542;-80
2023/01/07 13:09:16;;;;;;;0.00;0.00;;;;;;;;;;5134720;27;20049;-81
2023/01/07 13:14:35;;;;;;;0.00;0.00;;;;;;;;;;5134507;27;20071;-80
2023/01/07 13:17:12;;;;;;;0.00;0.00;;;;;;;;;;5112273;27;20548;-80
2023/01/07 13:19:38;;;;;;;0.00;0.00;;;;;;;;;;5108940;28;20085;-80
2023/01/07 13:22:05;;;;;;;0.00;0.00;;;;;;;;;;5092614;28;20044;-80
2023/01/07 13:24:38;;;;;;;0.00;0.00;;;;;;;;;;5086542;28;20127;-79
2023/01/07 13:27:04;;;;;;;0.00;0.00;;;;;;;;;;5092393;28;20172;-79
2023/01/07 13:29:49;;;;;;;0.00;0.00;;;;;;;;;;5093241;28;20586;-80
2023/01/07 13:32:18;;;;;;;0.00;0.00;;;;;;;;;;5091995;28;20036;-79
2023/01/07 13:35:03;;;;;;;0.00;0.00;;;;;;;;;;5092910;28;20444;-79
2023/01/07 13:37:38;;;;;;;0.00;0.00;;;;;;;;;;5108030;28;20508;-80
2023/01/07 13:40:15;;;;;;;0.15;0.03;;;;;;;;;;5092991;28;20483;-80
2023/01/07 13:42:49;;;;;;;0.00;0.00;;;;;;;;;;5092097;28;20040;-80
2023/01/07 13:45:20;;;;;;;0.00;0.00;;;;;;;;;;5091499;28;20050;-81
2023/01/07 13:47:49;;;;;;;0.00;0.00;;;;;;;;;;5091634;28;20380;-81
2023/01/07 13:50:31;;;;;;;0.00;0.00;;;;;;;;;;5074891;28;20048;-81
2023/01/07 13:53:02;;;;;;;0.00;0.00;;;;;;;;;;5075216;28;20521;-80
2023/01/07 13:55:39;;;;;;;0.00;0.00;;;;;;;;;;5091702;28;20096;-79
2023/01/07 13:58:29;;;;;;;0.00;0.00;;;;;;;;;;5091642;28;20040;-80
2023/01/07 14:01:01;;;;;;;0.00;0.00;;;;;;;;;;5054243;28;20048;-79
2023/01/07 14:03:27;;;;;;;0.00;0.00;;;;;;;;;;5091374;28;20420;-79
2023/01/07 14:06:12;;;;;;;0.00;0.00;;;;;;;;;;5091201;28;20039;-79
2023/01/07 14:08:38;;;;;;;0.00;0.00;;;;;;;;;;5091763;28;20451;-80
2023/01/07 14:11:04;;;;;;;0.00;0.00;;;;;;;;;;5091143;28;20044;-80
2023/01/07 14:13:39;;;;;;;0.00;0.00;;;;;;;;;;5113438;27;20467;-85
2023/01/07 14:16:13;;;;;;;0.00;0.00;;;;;;;;;;5131906;27;20466;-80
2023/01/07 14:19:00;;;;;;;0.00;0.00;;;;;;;;;;5133618;27;20039;-80
2023/01/07 14:21:36;;;;;;;0.00;0.00;;;;;;;;;;5132197;27;20473;-80
2023/01/07 14:24:21;;;;;;;0.00;0.00;;;;;;;;;;5132226;27;20520;-79
2023/01/07 14:27:05;;;;;;;0.00;0.00;;;;;;;;;;5132539;27;20118;-79
2023/01/07 14:29:47;;;;;;;0.00;0.00;;;;;;;;;;5133418;28;20091;-80
2023/01/07 14:32:13;;;;;;;0.00;0.00;;;;;;;;;;5133611;28;20035;-80
2023/01/07 14:34:39;;;;;;;0.43;0.00;;;;;;;;;;5131659;27;20051;-79
2023/01/07 14:37:13;;;;;;;0.00;0.00;;;;;;;;;;5114748;28;20038;-81
2023/01/07 14:39:43;;;;;;;0.00;0.00;;;;;;;;;;5133101;28;20524;-79
2023/01/07 14:42:18;;;;;;;0.00;0.00;;;;;;;;;;5132341;28;20043;-79
2023/01/07 14:44:49;;;;;;;0.00;0.00;;;;;;;;;;5131666;27;20050;-82
2023/01/07 14:47:34;;;;;;;0.00;0.00;;;;;;;;;;5133209;28;20071;-79
2023/01/07 14:50:09;;;;;;;0.00;0.00;;;;;;;;;;5134702;27;20039;-82
2023/01/07 14:52:47;;;;;;;0.00;0.00;;;;;;;;;;5136393;27;20051;-79
2023/01/07 14:55:19;;;;;;;0.00;0.00;;;;;;;;;;5135945;27;20354;-79
2023/01/07 14:57:56;;;;;;;0.00;0.00;;;;;;;;;;5137421;27;20046;-79
2023/01/07 15:00:37;;;;;;;0.00;0.00;;;;;;;;;;5118622;27;20043;-80
2023/01/07 15:03:09;;;;;;;0.00;0.00;;;;;;;;;;5137466;27;20437;-80
2023/01/07 15:05:38;;;;;;;0.00;0.00;;;;;;;;;;5135807;27;20200;-79